sensor_id;sensor_type;location;lat;lon;timestamp;P1;P2;P0
36047;PMS5003;24313;53.370;-6.596;2023-06-14T00:00:20;19;17;
36047;PMS5003;24313;53.370;-6.596;2023-06-14T00:02:47;16;16;
36047;PMS5003;24313;53.370;-6.596;2023-06-14T00:05:15;18;17;
36047;PMS5003;24313;53.370;-6.596;2023-06-14T00:07:43;16;16;
36047;PMS5003;24313;53.370;-6.596;2023-06-14T00:10:10;17;17;
36047;PMS5003;24313;53.370;-6.596;2023-06-14T00:12:38;20;18;
36047;PMS5003;24313;53.370;-6.596;2023-06-14T00:15:06;19;19;
36047;PMS5003;24313;53.370;-6.596;2023-06-14T00:17:34;23;21;
36047;PMS5003;24313;53.370;-6.596;2023-06-14T00:20:03;18;18;
36047;PMS5003;24313;53.370;-6.596;2023-06-14T00:22:31;24;21;
36047;PMS5003;24313;53.370;-6.596;2023-06-14T00:24:58;22;22;
36047;PMS5003;24313;53.370;-6.596;2023-06-14T00:27:25;19;19;
36047;PMS5003;24313;53.370;-6.596;2023-06-14T00:29:52;20;18;
36047;PMS5003;24313;53.370;-6.596;2023-06-14T00:32:20;20;20;
36047;PMS5003;24313;53.370;-6.596;2023-06-14T00:34:47;25;24;
36047;PMS5003;24313;53.370;-6.596;2023-06-14T00:37:14;27;25;
36047;PMS5003;24313;53.370;-6.596;2023-06-14T00:39:41;25;25;
36047;PMS5003;24313;53.370;-6.596;2023-06-14T00:42:08;17;17;
36047;PMS5003;24313;53.370;-6.596;2023-06-14T00:44:35;20;20;
36047;PMS5003;24313;53.370;-6.596;2023-06-14T00:47:03;22;22;
36047;PMS5003;24313;53.370;-6.596;2023-06-14T00:49:31;28;25;
36047;PMS5003;24313;53.370;-6.596;2023-06-14T00:51:58;20;19;
36047;PMS5003;24313;53.370;-6.596;2023-06-14T00:54:26;28;26;
36047;PMS5003;24313;53.370;-6.596;2023-06-14T00:56:54;25;22;
36047;PMS5003;24313;53.370;-6.596;2023-06-14T00:59:21;23;23;
36047;PMS5003;24313;53.370;-6.596;2023-06-14T01:01:48;24;21;
36047;PMS5003;24313;53.370;-6.596;2023-06-14T01:04:16;23;22;
36047;PMS5003;24313;53.370;-6.596;2023-06-14T01:06:45;26;25;
36047;PMS5003;24313;53.370;-6.596;2023-06-14T01:09:21;22;22;
36047;PMS5003;24313;53.370;-6.596;2023-06-14T01:11:58;30;24;
36047;PMS5003;24313;53.370;-6.596;2023-06-14T01:14:30;26;25;
36047;PMS5003;24313;53.370;-6.596;2023-06-14T01:17:01;25;25;
36047;PMS5003;24313;53.370;-6.596;2023-06-14T01:19:30;29;24;
36047;PMS5003;24313;53.370;-6.596;2023-06-14T01:21:59;25;23;
36047;PMS5003;24313;53.370;-6.596;2023-06-14T01:24:28;26;23;
36047;PMS5003;24313;53.370;-6.596;2023-06-14T01:26:55;29;28;
36047;PMS5003;24313;53.370;-6.596;2023-06-14T01:29:23;25;23;
36047;PMS5003;24313;53.370;-6.596;2023-06-14T01:31:54;28;25;
36047;PMS5003;24313;53.370;-6.596;2023-06-14T01:34:21;24;22;
36047;PMS5003;24313;53.370;-6.596;2023-06-14T01:36:49;29;26;
36047;PMS5003;24313;53.370;-6.596;2023-06-14T01:39:18;23;23;
36047;PMS5003;24313;53.370;-6.596;2023-06-14T01:41:45;26;23;
36047;PMS5003;24313;53.370;-6.596;2023-06-14T01:44:14;27;25;
36047;PMS5003;24313;53.370;-6.596;2023-06-14T01:46:43;30;27;
36047;PMS5003;24313;53.370;-6.596;2023-06-14T01:49:12;28;28;
36047;PMS5003;24313;53.370;-6.596;2023-06-14T01:51:39;25;24;
36047;PMS5003;24313;53.370;-6.596;2023-06-14T01:54:07;33;31;
36047;PMS5003;24313;53.370;-6.596;2023-06-14T01:56:34;28;28;
36047;PMS5003;24313;53.370;-6.596;2023-06-14T01:59:01;26;24;
36047;PMS5003;24313;53.370;-6.596;2023-06-14T02:01:28;27;24;
36047;PMS5003;24313;53.370;-6.596;2023-06-14T02:03:55;29;27;
36047;PMS5003;24313;53.370;-6.596;2023-06-14T02:06:23;27;27;
36047;PMS5003;24313;53.370;-6.596;2023-06-14T02:08:53;32;32;
36047;PMS5003;24313;53.370;-6.596;2023-06-14T02:11:21;29;26;
36047;PMS5003;24313;53.370;-6.596;2023-06-14T02:13:48;31;28;
36047;PMS5003;24313;53.370;-6.596;2023-06-14T02:16:21;28;24;
36047;PMS5003;24313;53.370;-6.596;2023-06-14T02:18:54;28;28;
36047;PMS5003;24313;53.370;-6.596;2023-06-14T02:21:21;33;33;
36047;PMS5003;24313;53.370;-6.596;2023-06-14T02:23:49;28;26;
36047;PMS5003;24313;53.370;-6.596;2023-06-14T02:26:16;36;32;
36047;PMS5003;24313;53.370;-6.596;2023-06-14T02:28:44;26;26;
36047;PMS5003;24313;53.370;-6.596;2023-06-14T02:31:12;28;26;
36047;PMS5003;24313;53.370;-6.596;2023-06-14T02:33:39;33;30;
36047;PMS5003;24313;53.370;-6.596;2023-06-14T02:36:06;30;28;
36047;PMS5003;24313;53.370;-6.596;2023-06-14T02:38:33;27;27;
36047;PMS5003;24313;53.370;-6.596;2023-06-14T02:41:00;35;31;
36047;PMS5003;24313;53.370;-6.596;2023-06-14T02:43:28;30;30;
36047;PMS5003;24313;53.370;-6.596;2023-06-14T02:45:56;31;29;
36047;PMS5003;24313;53.370;-6.596;2023-06-14T02:48:23;30;29;
36047;PMS5003;24313;53.370;-6.596;2023-06-14T02:50:49;36;34;
36047;PMS5003;24313;53.370;-6.596;2023-06-14T02:53:22;32;29;
36047;PMS5003;24313;53.370;-6.596;2023-06-14T02:55:49;27;25;
36047;PMS5003;24313;53.370;-6.596;2023-06-14T02:58:22;29;28;
36047;PMS5003;24313;53.370;-6.596;2023-06-14T03:00:48;23;22;
36047;PMS5003;24313;53.370;-6.596;2023-06-14T03:03:16;21;19;
36047;PMS5003;24313;53.370;-6.596;2023-06-14T03:05:44;29;27;
36047;PMS5003;24313;53.370;-6.596;2023-06-14T03:08:13;27;27;
36047;PMS5003;24313;53.370;-6.596;2023-06-14T03:10:45;23;21;
36047;PMS5003;24313;53.370;-6.596;2023-06-14T03:13:13;25;22;
36047;PMS5003;24313;53.370;-6.596;2023-06-14T03:15:41;20;19;
36047;PMS5003;24313;53.370;-6.596;2023-06-14T03:18:08;23;23;
36047;PMS5003;24313;53.370;-6.596;2023-06-14T03:20:36;22;22;
36047;PMS5003;24313;53.370;-6.596;2023-06-14T03:23:04;22;20;
36047;PMS5003;24313;53.370;-6.596;2023-06-14T03:25:33;21;20;
36047;PMS5003;24313;53.370;-6.596;2023-06-14T03:28:01;23;23;
36047;PMS5003;24313;53.370;-6.596;2023-06-14T03:30:29;22;22;
36047;PMS5003;24313;53.370;-6.596;2023-06-14T03:32:57;25;23;
36047;PMS5003;24313;53.370;-6.596;2023-06-14T03:35:30;26;25;
36047;PMS5003;24313;53.370;-6.596;2023-06-14T03:37:57;25;23;
36047;PMS5003;24313;53.370;-6.596;2023-06-14T03:40:24;19;19;
36047;PMS5003;24313;53.370;-6.596;2023-06-14T03:42:51;20;19;
36047;PMS5003;24313;53.370;-6.596;2023-06-14T03:45:18;24;21;
36047;PMS5003;24313;53.370;-6.596;2023-06-14T03:47:45;19;19;
36047;PMS5003;24313;53.370;-6.596;2023-06-14T03:50:13;20;20;
36047;PMS5003;24313;53.370;-6.596;2023-06-14T03:52:40;23;21;
36047;PMS5003;24313;53.370;-6.596;2023-06-14T03:55:08;23;21;
36047;PMS5003;24313;53.370;-6.596;2023-06-14T03:57:36;18;18;
36047;PMS5003;24313;53.370;-6.596;2023-06-14T04:00:03;20;20;
36047;PMS5003;24313;53.370;-6.596;2023-06-14T04:02:31;14;14;
36047;PMS5003;24313;53.370;-6.596;2023-06-14T04:04:58;25;22;
36047;PMS5003;24313;53.370;-6.596;2023-06-14T04:07:26;19;19;
36047;PMS5003;24313;53.370;-6.596;2023-06-14T04:09:53;17;16;
36047;PMS5003;24313;53.370;-6.596;2023-06-14T04:12:21;17;16;
36047;PMS5003;24313;53.370;-6.596;2023-06-14T04:14:49;20;17;
36047;PMS5003;24313;53.370;-6.596;2023-06-14T04:17:16;18;18;
36047;PMS5003;24313;53.370;-6.596;2023-06-14T04:19:44;21;21;
36047;PMS5003;24313;53.370;-6.596;2023-06-14T04:22:11;18;17;
36047;PMS5003;24313;53.370;-6.596;2023-06-14T04:24:38;18;15;
36047;PMS5003;24313;53.370;-6.596;2023-06-14T04:27:05;15;15;
36047;PMS5003;24313;53.370;-6.596;2023-06-14T04:29:32;16;16;
36047;PMS5003;24313;53.370;-6.596;2023-06-14T04:31:59;17;16;
36047;PMS5003;24313;53.370;-6.596;2023-06-14T04:34:26;17;16;
36047;PMS5003;24313;53.370;-6.596;2023-06-14T04:36:55;19;18;
36047;PMS5003;24313;53.370;-6.596;2023-06-14T04:39:23;14;14;
36047;PMS5003;24313;53.370;-6.596;2023-06-14T04:41:50;14;14;
36047;PMS5003;24313;53.370;-6.596;2023-06-14T04:44:17;16;15;
36047;PMS5003;24313;53.370;-6.596;2023-06-14T04:46:45;15;15;
36047;PMS5003;24313;53.370;-6.596;2023-06-14T04:49:13;20;17;
36047;PMS5003;24313;53.370;-6.596;2023-06-14T04:51:45;12;12;
36047;PMS5003;24313;53.370;-6.596;2023-06-14T04:54:13;16;15;
36047;PMS5003;24313;53.370;-6.596;2023-06-14T04:56:41;15;14;
36047;PMS5003;24313;53.370;-6.596;2023-06-14T04:59:08;14;14;
36047;PMS5003;24313;53.370;-6.596;2023-06-14T05:01:36;19;14;
36047;PMS5003;24313;53.370;-6.596;2023-06-14T05:04:03;14;14;
36047;PMS5003;24313;53.370;-6.596;2023-06-14T05:06:31;16;15;
36047;PMS5003;24313;53.370;-6.596;2023-06-14T05:08:58;19;19;
36047;PMS5003;24313;53.370;-6.596;2023-06-14T05:11:25;15;15;
36047;PMS5003;24313;53.370;-6.596;2023-06-14T05:13:52;18;15;
36047;PMS5003;24313;53.370;-6.596;2023-06-14T05:16:20;13;13;
36047;PMS5003;24313;53.370;-6.596;2023-06-14T05:18:47;19;17;
36047;PMS5003;24313;53.370;-6.596;2023-06-14T05:21:15;16;14;
36047;PMS5003;24313;53.370;-6.596;2023-06-14T05:23:42;16;15;
36047;PMS5003;24313;53.370;-6.596;2023-06-14T05:26:10;16;14;
36047;PMS5003;24313;53.370;-6.596;2023-06-14T05:28:37;14;14;
36047;PMS5003;24313;53.370;-6.596;2023-06-14T05:31:05;17;17;
36047;PMS5003;24313;53.370;-6.596;2023-06-14T05:33:33;18;16;
36047;PMS5003;24313;53.370;-6.596;2023-06-14T05:35:59;16;14;
36047;PMS5003;24313;53.370;-6.596;2023-06-14T05:38:27;15;15;
36047;PMS5003;24313;53.370;-6.596;2023-06-14T05:40:59;16;16;
36047;PMS5003;24313;53.370;-6.596;2023-06-14T05:43:26;14;14;
36047;PMS5003;24313;53.370;-6.596;2023-06-14T05:45:53;15;13;
36047;PMS5003;24313;53.370;-6.596;2023-06-14T05:48:21;14;14;
36047;PMS5003;24313;53.370;-6.596;2023-06-14T05:50:49;14;13;
36047;PMS5003;24313;53.370;-6.596;2023-06-14T05:53:16;17;15;
36047;PMS5003;24313;53.370;-6.596;2023-06-14T05:55:43;17;15;
36047;PMS5003;24313;53.370;-6.596;2023-06-14T05:58:10;12;12;
36047;PMS5003;24313;53.370;-6.596;2023-06-14T06:00:38;18;17;
36047;PMS5003;24313;53.370;-6.596;2023-06-14T06:03:06;16;16;
36047;PMS5003;24313;53.370;-6.596;2023-06-14T06:05:33;12;12;
36047;PMS5003;24313;53.370;-6.596;2023-06-14T06:08:00;14;13;
36047;PMS5003;24313;53.370;-6.596;2023-06-14T06:10:33;19;15;
36047;PMS5003;24313;53.370;-6.596;2023-06-14T06:13:00;15;14;
36047;PMS5003;24313;53.370;-6.596;2023-06-14T06:15:28;13;13;
36047;PMS5003;24313;53.370;-6.596;2023-06-14T06:17:55;15;14;
36047;PMS5003;24313;53.370;-6.596;2023-06-14T06:20:23;16;14;
36047;PMS5003;24313;53.370;-6.596;2023-06-14T06:22:51;12;12;
36047;PMS5003;24313;53.370;-6.596;2023-06-14T06:25:17;16;16;
36047;PMS5003;24313;53.370;-6.596;2023-06-14T06:27:45;15;13;
36047;PMS5003;24313;53.370;-6.596;2023-06-14T06:30:18;17;17;
36047;PMS5003;24313;53.370;-6.596;2023-06-14T06:32:46;13;13;
36047;PMS5003;24313;53.370;-6.596;2023-06-14T06:35:13;13;11;
36047;PMS5003;24313;53.370;-6.596;2023-06-14T06:37:41;16;13;
36047;PMS5003;24313;53.370;-6.596;2023-06-14T06:40:09;14;13;
36047;PMS5003;24313;53.370;-6.596;2023-06-14T06:42:37;13;13;
36047;PMS5003;24313;53.370;-6.596;2023-06-14T06:45:04;16;14;
36047;PMS5003;24313;53.370;-6.596;2023-06-14T06:47:32;13;11;
36047;PMS5003;24313;53.370;-6.596;2023-06-14T06:50:00;12;12;
36047;PMS5003;24313;53.370;-6.596;2023-06-14T06:52:35;11;11;
36047;PMS5003;24313;53.370;-6.596;2023-06-14T06:55:03;10;10;
36047;PMS5003;24313;53.370;-6.596;2023-06-14T06:57:32;9;9;
36047;PMS5003;24313;53.370;-6.596;2023-06-14T07:00:00;11;11;
36047;PMS5003;24313;53.370;-6.596;2023-06-14T07:02:27;11;9;
36047;PMS5003;24313;53.370;-6.596;2023-06-14T07:04:55;12;12;
36047;PMS5003;24313;53.370;-6.596;2023-06-14T07:07:22;11;11;
36047;PMS5003;24313;53.370;-6.596;2023-06-14T07:09:50;10;10;
36047;PMS5003;24313;53.370;-6.596;2023-06-14T07:12:17;10;9;
36047;PMS5003;24313;53.370;-6.596;2023-06-14T07:14:45;12;12;
36047;PMS5003;24313;53.370;-6.596;2023-06-14T07:17:12;12;12;
36047;PMS5003;24313;53.370;-6.596;2023-06-14T07:19:40;15;14;
36047;PMS5003;24313;53.370;-6.596;2023-06-14T07:22:07;12;10;
36047;PMS5003;24313;53.370;-6.596;2023-06-14T07:24:35;12;10;
36047;PMS5003;24313;53.370;-6.596;2023-06-14T07:27:03;12;11;
36047;PMS5003;24313;53.370;-6.596;2023-06-14T07:29:30;11;10;
36047;PMS5003;24313;53.370;-6.596;2023-06-14T07:31:58;9;9;
36047;PMS5003;24313;53.370;-6.596;2023-06-14T07:34:25;8;8;
36047;PMS5003;24313;53.370;-6.596;2023-06-14T07:36:52;13;12;
36047;PMS5003;24313;53.370;-6.596;2023-06-14T07:39:20;10;10;
36047;PMS5003;24313;53.370;-6.596;2023-06-14T07:41:47;10;10;
36047;PMS5003;24313;53.370;-6.596;2023-06-14T07:44:15;14;13;
36047;PMS5003;24313;53.370;-6.596;2023-06-14T07:46:43;11;11;
36047;PMS5003;24313;53.370;-6.596;2023-06-14T07:49:10;10;10;
36047;PMS5003;24313;53.370;-6.596;2023-06-14T07:51:37;14;13;
36047;PMS5003;24313;53.370;-6.596;2023-06-14T07:54:04;11;10;
36047;PMS5003;24313;53.370;-6.596;2023-06-14T07:56:32;11;11;
36047;PMS5003;24313;53.370;-6.596;2023-06-14T07:58:59;11;11;
36047;PMS5003;24313;53.370;-6.596;2023-06-14T08:01:27;10;9;
36047;PMS5003;24313;53.370;-6.596;2023-06-14T08:03:54;11;9;
36047;PMS5003;24313;53.370;-6.596;2023-06-14T08:06:22;12;11;
36047;PMS5003;24313;53.370;-6.596;2023-06-14T08:08:49;11;11;
36047;PMS5003;24313;53.370;-6.596;2023-06-14T08:11:16;13;11;
36047;PMS5003;24313;53.370;-6.596;2023-06-14T08:13:44;12;12;
36047;PMS5003;24313;53.370;-6.596;2023-06-14T08:16:11;10;10;
36047;PMS5003;24313;53.370;-6.596;2023-06-14T08:18:39;11;10;
36047;PMS5003;24313;53.370;-6.596;2023-06-14T08:21:06;12;10;
36047;PMS5003;24313;53.370;-6.596;2023-06-14T08:23:33;17;13;
36047;PMS5003;24313;53.370;-6.596;2023-06-14T08:26:01;12;10;
36047;PMS5003;24313;53.370;-6.596;2023-06-14T08:28:29;13;10;
36047;PMS5003;24313;53.370;-6.596;2023-06-14T08:30:56;11;11;
36047;PMS5003;24313;53.370;-6.596;2023-06-14T08:33:23;10;10;
36047;PMS5003;24313;53.370;-6.596;2023-06-14T08:35:50;11;11;
36047;PMS5003;24313;53.370;-6.596;2023-06-14T08:38:18;10;10;
36047;PMS5003;24313;53.370;-6.596;2023-06-14T08:40:46;10;8;
36047;PMS5003;24313;53.370;-6.596;2023-06-14T08:43:16;13;12;
36047;PMS5003;24313;53.370;-6.596;2023-06-14T08:45:43;9;9;
36047;PMS5003;24313;53.370;-6.596;2023-06-14T08:48:14;12;10;
36047;PMS5003;24313;53.370;-6.596;2023-06-14T08:50:42;9;9;
36047;PMS5003;24313;53.370;-6.596;2023-06-14T08:53:11;10;10;
36047;PMS5003;24313;53.370;-6.596;2023-06-14T08:55:41;10;10;
36047;PMS5003;24313;53.370;-6.596;2023-06-14T08:58:08;15;13;
36047;PMS5003;24313;53.370;-6.596;2023-06-14T09:00:36;11;11;
36047;PMS5003;24313;53.370;-6.596;2023-06-14T09:03:03;12;12;
36047;PMS5003;24313;53.370;-6.596;2023-06-14T09:05:30;9;9;
36047;PMS5003;24313;53.370;-6.596;2023-06-14T09:07:58;13;12;
36047;PMS5003;24313;53.370;-6.596;2023-06-14T09:10:25;12;9;
36047;PMS5003;24313;53.370;-6.596;2023-06-14T09:12:54;12;11;
36047;PMS5003;24313;53.370;-6.596;2023-06-14T09:15:22;12;11;
36047;PMS5003;24313;53.370;-6.596;2023-06-14T09:17:50;11;9;
36047;PMS5003;24313;53.370;-6.596;2023-06-14T09:20:17;10;10;
36047;PMS5003;24313;53.370;-6.596;2023-06-14T09:22:44;9;9;
36047;PMS5003;24313;53.370;-6.596;2023-06-14T09:25:12;9;8;
36047;PMS5003;24313;53.370;-6.596;2023-06-14T09:27:39;10;9;
36047;PMS5003;24313;53.370;-6.596;2023-06-14T09:30:08;10;10;
36047;PMS5003;24313;53.370;-6.596;2023-06-14T09:32:36;9;9;
36047;PMS5003;24313;53.370;-6.596;2023-06-14T09:35:05;13;9;
36047;PMS5003;24313;53.370;-6.596;2023-06-14T09:37:33;10;10;
36047;PMS5003;24313;53.370;-6.596;2023-06-14T09:40:01;6;6;
36047;PMS5003;24313;53.370;-6.596;2023-06-14T09:42:30;6;6;
36047;PMS5003;24313;53.370;-6.596;2023-06-14T09:44:58;8;8;
36047;PMS5003;24313;53.370;-6.596;2023-06-14T09:47:25;8;6;
36047;PMS5003;24313;53.370;-6.596;2023-06-14T09:49:53;6;5;
36047;PMS5003;24313;53.370;-6.596;2023-06-14T09:52:22;6;5;
36047;PMS5003;24313;53.370;-6.596;2023-06-14T09:54:49;6;6;
36047;PMS5003;24313;53.370;-6.596;2023-06-14T09:57:21;7;7;
36047;PMS5003;24313;53.370;-6.596;2023-06-14T09:59:52;7;7;
36047;PMS5003;24313;53.370;-6.596;2023-06-14T10:02:25;7;5;
36047;PMS5003;24313;53.370;-6.596;2023-06-14T10:04:56;6;6;
36047;PMS5003;24313;53.370;-6.596;2023-06-14T10:07:30;9;8;
36047;PMS5003;24313;53.370;-6.596;2023-06-14T10:10:01;6;6;
36047;PMS5003;24313;53.370;-6.596;2023-06-14T10:12:29;6;6;
36047;PMS5003;24313;53.370;-6.596;2023-06-14T10:14:57;6;6;
36047;PMS5003;24313;53.370;-6.596;2023-06-14T10:17:27;4;4;
36047;PMS5003;24313;53.370;-6.596;2023-06-14T10:20:06;10;8;
36047;PMS5003;24313;53.370;-6.596;2023-06-14T10:22:44;6;6;
36047;PMS5003;24313;53.370;-6.596;2023-06-14T10:25:25;6;6;
36047;PMS5003;24313;53.370;-6.596;2023-06-14T10:28:02;5;5;
36047;PMS5003;24313;53.370;-6.596;2023-06-14T10:30:30;5;5;
36047;PMS5003;24313;53.370;-6.596;2023-06-14T10:33:05;7;7;
36047;PMS5003;24313;53.370;-6.596;2023-06-14T10:35:41;7;7;
36047;PMS5003;24313;53.370;-6.596;2023-06-14T10:38:09;7;6;
36047;PMS5003;24313;53.370;-6.596;2023-06-14T10:40:39;8;8;
36047;PMS5003;24313;53.370;-6.596;2023-06-14T10:43:20;7;7;
36047;PMS5003;24313;53.370;-6.596;2023-06-14T10:46:21;5;5;
36047;PMS5003;24313;53.370;-6.596;2023-06-14T10:48:56;6;6;
36047;PMS5003;24313;53.370;-6.596;2023-06-14T10:51:24;7;7;
36047;PMS5003;24313;53.370;-6.596;2023-06-14T10:53:51;6;6;
36047;PMS5003;24313;53.370;-6.596;2023-06-14T10:56:24;8;8;
36047;PMS5003;24313;53.370;-6.596;2023-06-14T10:58:53;7;7;
36047;PMS5003;24313;53.370;-6.596;2023-06-14T11:01:23;7;7;
36047;PMS5003;24313;53.370;-6.596;2023-06-14T11:04:06;5;5;
36047;PMS5003;24313;53.370;-6.596;2023-06-14T11:06:39;8;8;
36047;PMS5003;24313;53.370;-6.596;2023-06-14T11:09:26;8;8;
36047;PMS5003;24313;53.370;-6.596;2023-06-14T11:12:08;9;6;
36047;PMS5003;24313;53.370;-6.596;2023-06-14T11:14:41;7;6;
36047;PMS5003;24313;53.370;-6.596;2023-06-14T11:17:12;6;6;
36047;PMS5003;24313;53.370;-6.596;2023-06-14T11:19:39;8;7;
36047;PMS5003;24313;53.370;-6.596;2023-06-14T11:22:06;4;4;
36047;PMS5003;24313;53.370;-6.596;2023-06-14T11:24:33;6;5;
36047;PMS5003;24313;53.370;-6.596;2023-06-14T11:27:00;6;6;
36047;PMS5003;24313;53.370;-6.596;2023-06-14T11:29:29;7;7;
36047;PMS5003;24313;53.370;-6.596;2023-06-14T11:31:56;7;7;
36047;PMS5003;24313;53.370;-6.596;2023-06-14T11:34:24;5;5;
36047;PMS5003;24313;53.370;-6.596;2023-06-14T11:36:51;6;6;
36047;PMS5003;24313;53.370;-6.596;2023-06-14T11:39:23;7;6;
36047;PMS5003;24313;53.370;-6.596;2023-06-14T11:41:52;7;7;
36047;PMS5003;24313;53.370;-6.596;2023-06-14T11:44:19;7;7;
36047;PMS5003;24313;53.370;-6.596;2023-06-14T11:46:47;9;7;
36047;PMS5003;24313;53.370;-6.596;2023-06-14T11:49:14;7;7;
36047;PMS5003;24313;53.370;-6.596;2023-06-14T11:51:42;7;7;
36047;PMS5003;24313;53.370;-6.596;2023-06-14T11:54:10;7;7;
36047;PMS5003;24313;53.370;-6.596;2023-06-14T11:56:38;8;7;
36047;PMS5003;24313;53.370;-6.596;2023-06-14T11:59:05;9;9;
36047;PMS5003;24313;53.370;-6.596;2023-06-14T12:01:35;8;8;
36047;PMS5003;24313;53.370;-6.596;2023-06-14T12:04:03;9;9;
36047;PMS5003;24313;53.370;-6.596;2023-06-14T12:06:31;8;6;
36047;PMS5003;24313;53.370;-6.596;2023-06-14T12:08:58;8;8;
36047;PMS5003;24313;53.370;-6.596;2023-06-14T12:11:32;7;7;
36047;PMS5003;24313;53.370;-6.596;2023-06-14T12:14:02;10;8;
36047;PMS5003;24313;53.370;-6.596;2023-06-14T12:16:30;7;7;
36047;PMS5003;24313;53.370;-6.596;2023-06-14T12:19:00;11;11;
36047;PMS5003;24313;53.370;-6.596;2023-06-14T12:21:33;7;7;
36047;PMS5003;24313;53.370;-6.596;2023-06-14T12:24:02;9;9;
36047;PMS5003;24313;53.370;-6.596;2023-06-14T12:26:30;8;7;
36047;PMS5003;24313;53.370;-6.596;2023-06-14T12:28:57;9;9;
36047;PMS5003;24313;53.370;-6.596;2023-06-14T12:31:32;9;7;
36047;PMS5003;24313;53.370;-6.596;2023-06-14T12:33:59;7;7;
36047;PMS5003;24313;53.370;-6.596;2023-06-14T12:36:26;9;9;
36047;PMS5003;24313;53.370;-6.596;2023-06-14T12:38:54;7;7;
36047;PMS5003;24313;53.370;-6.596;2023-06-14T12:41:21;8;7;
36047;PMS5003;24313;53.370;-6.596;2023-06-14T12:43:48;10;10;
36047;PMS5003;24313;53.370;-6.596;2023-06-14T12:46:16;8;8;
36047;PMS5003;24313;53.370;-6.596;2023-06-14T12:48:48;10;9;
36047;PMS5003;24313;53.370;-6.596;2023-06-14T12:51:16;6;6;
36047;PMS5003;24313;53.370;-6.596;2023-06-14T12:53:48;6;6;
36047;PMS5003;24313;53.370;-6.596;2023-06-14T12:56:15;8;8;
36047;PMS5003;24313;53.370;-6.596;2023-06-14T12:58:43;8;8;
36047;PMS5003;24313;53.370;-6.596;2023-06-14T13:01:10;8;8;
36047;PMS5003;24313;53.370;-6.596;2023-06-14T13:03:37;7;7;
36047;PMS5003;24313;53.370;-6.596;2023-06-14T13:06:10;8;7;
36047;PMS5003;24313;53.370;-6.596;2023-06-14T13:08:38;9;8;
36047;PMS5003;24313;53.370;-6.596;2023-06-14T13:11:05;7;7;
36047;PMS5003;24313;53.370;-6.596;2023-06-14T13:13:33;7;7;
36047;PMS5003;24313;53.370;-6.596;2023-06-14T13:16:00;5;5;
36047;PMS5003;24313;53.370;-6.596;2023-06-14T13:18:27;7;7;
36047;PMS5003;24313;53.370;-6.596;2023-06-14T13:20:55;6;6;
36047;PMS5003;24313;53.370;-6.596;2023-06-14T13:23:22;8;7;
36047;PMS5003;24313;53.370;-6.596;2023-06-14T13:25:49;7;6;
36047;PMS5003;24313;53.370;-6.596;2023-06-14T13:28:17;7;7;
36047;PMS5003;24313;53.370;-6.596;2023-06-14T13:30:44;6;6;
36047;PMS5003;24313;53.370;-6.596;2023-06-14T13:33:11;8;8;
36047;PMS5003;24313;53.370;-6.596;2023-06-14T13:35:38;11;7;
36047;PMS5003;24313;53.370;-6.596;2023-06-14T13:38:06;6;6;
36047;PMS5003;24313;53.370;-6.596;2023-06-14T13:40:35;7;6;
36047;PMS5003;24313;53.370;-6.596;2023-06-14T13:43:02;8;8;
36047;PMS5003;24313;53.370;-6.596;2023-06-14T13:45:29;7;7;
36047;PMS5003;24313;53.370;-6.596;2023-06-14T13:47:57;6;6;
36047;PMS5003;24313;53.370;-6.596;2023-06-14T13:50:24;9;8;
36047;PMS5003;24313;53.370;-6.596;2023-06-14T13:52:51;7;7;
36047;PMS5003;24313;53.370;-6.596;2023-06-14T13:55:19;7;7;
36047;PMS5003;24313;53.370;-6.596;2023-06-14T13:57:46;10;8;
36047;PMS5003;24313;53.370;-6.596;2023-06-14T14:00:14;5;5;
36047;PMS5003;24313;53.370;-6.596;2023-06-14T14:02:42;6;6;
36047;PMS5003;24313;53.370;-6.596;2023-06-14T14:05:09;8;6;
36047;PMS5003;24313;53.370;-6.596;2023-06-14T14:07:36;8;8;
36047;PMS5003;24313;53.370;-6.596;2023-06-14T14:10:04;6;6;
36047;PMS5003;24313;53.370;-6.596;2023-06-14T14:12:37;6;5;
36047;PMS5003;24313;53.370;-6.596;2023-06-14T14:15:09;8;7;
36047;PMS5003;24313;53.370;-6.596;2023-06-14T14:17:36;7;7;
36047;PMS5003;24313;53.370;-6.596;2023-06-14T14:20:04;6;6;
36047;PMS5003;24313;53.370;-6.596;2023-06-14T14:22:31;9;7;
36047;PMS5003;24313;53.370;-6.596;2023-06-14T14:24:59;9;8;
36047;PMS5003;24313;53.370;-6.596;2023-06-14T14:27:26;9;8;
36047;PMS5003;24313;53.370;-6.596;2023-06-14T14:29:53;6;6;
36047;PMS5003;24313;53.370;-6.596;2023-06-14T14:32:21;7;7;
36047;PMS5003;24313;53.370;-6.596;2023-06-14T14:34:48;7;7;
36047;PMS5003;24313;53.370;-6.596;2023-06-14T14:37:15;7;7;
36047;PMS5003;24313;53.370;-6.596;2023-06-14T14:39:44;7;7;
36047;PMS5003;24313;53.370;-6.596;2023-06-14T14:42:12;9;8;
36047;PMS5003;24313;53.370;-6.596;2023-06-14T14:44:40;6;6;
36047;PMS5003;24313;53.370;-6.596;2023-06-14T14:47:07;6;6;
36047;PMS5003;24313;53.370;-6.596;2023-06-14T14:49:34;7;7;
36047;PMS5003;24313;53.370;-6.596;2023-06-14T14:52:02;5;5;
36047;PMS5003;24313;53.370;-6.596;2023-06-14T14:54:29;6;6;
36047;PMS5003;24313;53.370;-6.596;2023-06-14T14:56:56;7;6;
36047;PMS5003;24313;53.370;-6.596;2023-06-14T14:59:23;7;7;
36047;PMS5003;24313;53.370;-6.596;2023-06-14T15:01:51;5;5;
36047;PMS5003;24313;53.370;-6.596;2023-06-14T15:04:18;7;7;
36047;PMS5003;24313;53.370;-6.596;2023-06-14T15:06:46;7;7;
36047;PMS5003;24313;53.370;-6.596;2023-06-14T15:09:14;6;6;
36047;PMS5003;24313;53.370;-6.596;2023-06-14T15:11:41;6;5;
36047;PMS5003;24313;53.370;-6.596;2023-06-14T15:14:08;5;5;
36047;PMS5003;24313;53.370;-6.596;2023-06-14T15:16:36;5;5;
36047;PMS5003;24313;53.370;-6.596;2023-06-14T15:19:03;5;5;
36047;PMS5003;24313;53.370;-6.596;2023-06-14T15:21:30;8;8;
36047;PMS5003;24313;53.370;-6.596;2023-06-14T15:23:58;8;8;
36047;PMS5003;24313;53.370;-6.596;2023-06-14T15:26:25;6;6;
36047;PMS5003;24313;53.370;-6.596;2023-06-14T15:28:52;8;8;
36047;PMS5003;24313;53.370;-6.596;2023-06-14T15:31:20;7;7;
36047;PMS5003;24313;53.370;-6.596;2023-06-14T15:33:47;5;5;
36047;PMS5003;24313;53.370;-6.596;2023-06-14T15:36:14;6;6;
36047;PMS5003;24313;53.370;-6.596;2023-06-14T15:38:42;5;5;
36047;PMS5003;24313;53.370;-6.596;2023-06-14T15:41:14;5;5;
36047;PMS5003;24313;53.370;-6.596;2023-06-14T15:43:42;7;5;
36047;PMS5003;24313;53.370;-6.596;2023-06-14T15:46:09;9;9;
36047;PMS5003;24313;53.370;-6.596;2023-06-14T15:48:36;8;8;
36047;PMS5003;24313;53.370;-6.596;2023-06-14T15:51:04;6;6;
36047;PMS5003;24313;53.370;-6.596;2023-06-14T15:53:31;7;7;
36047;PMS5003;24313;53.370;-6.596;2023-06-14T15:55:59;87;83;
36047;PMS5003;24313;53.370;-6.596;2023-06-14T15:58:26;6;6;
36047;PMS5003;24313;53.370;-6.596;2023-06-14T16:00:54;5;5;
36047;PMS5003;24313;53.370;-6.596;2023-06-14T16:03:21;6;6;
36047;PMS5003;24313;53.370;-6.596;2023-06-14T16:05:48;10;9;
36047;PMS5003;24313;53.370;-6.596;2023-06-14T16:08:16;70;68;
36047;PMS5003;24313;53.370;-6.596;2023-06-14T16:10:43;65;65;
36047;PMS5003;24313;53.370;-6.596;2023-06-14T16:13:10;7;7;
36047;PMS5003;24313;53.370;-6.596;2023-06-14T16:15:37;21;19;
36047;PMS5003;24313;53.370;-6.596;2023-06-14T16:18:09;20;19;
36047;PMS5003;24313;53.370;-6.596;2023-06-14T16:20:37;6;6;